2. Juli 2022

Uhrzeit Code Wetter Temp. Sichtweite Wolkendecke Wind METAR/SPECI
8:55 am
M
61 °F 6¼ mi+ 1.400 ft 210° 210° 16 kt METAR EHHW 020655Z AUTO 21016KT 9999 FEW011/// BKN014/// BKN019/// 16/14 Q1019
8:25 am
V
61 °F 6¼ mi+ - 200° 200° 16 kt METAR EHHW 020625Z AUTO 20016KT 9999 FEW013/// 16/13 Q1019
7:55 am
V
61 °F 6¼ mi+ - 210° 210° 17 kt METAR EHHW 020555Z AUTO 21017KT 9999 NCD 16/13 Q1019
7:25 am
V
61 °F 6¼ mi+ - 210° 210° 18 kt METAR EHHW 020525Z AUTO 21018KT 9999 NCD 16/13 Q1019
6:55 am
V
61 °F 6¼ mi+ - 210° 210° 17 kt METAR EHHW 020455Z AUTO 21017KT 9999 NCD 16/13 Q1019
6:25 am
V
63 °F 6¼ mi+ - 210° 210° 18 kt METAR EHHW 020425Z AUTO 21018KT 9999 NCD 17/12 Q1019
5:55 am
V
63 °F 6¼ mi+ - 210° 210° 17 kt METAR EHHW 020355Z AUTO 21017KT 9999 NCD 17/12 Q1019
5:25 am
V
63 °F 6¼ mi+ - 210° 210° 14 kt METAR EHHW 020325Z AUTO 21014KT 9999 NCD 17/13 Q1019
4:55 am
V
63 °F 6¼ mi+ - 210° 210° 14 kt METAR EHHW 020255Z AUTO 21014KT 9999 NCD 17/13 Q1018
4:25 am
V
63 °F 6¼ mi+ - 210° 210° 15 kt METAR EHHW 020225Z AUTO 21015KT 9999 NCD 17/13 Q1018
3:55 am
V
63 °F 6¼ mi+ - 210° 210° 15 kt METAR EHHW 020155Z AUTO 21015KT 9999 NCD 17/14 Q1019
3:25 am
V
63 °F 6¼ mi+ - 210° 210° 15 kt METAR EHHW 020125Z AUTO 21015KT 9999 NCD 17/14 Q1019
2:55 am
V
63 °F 6¼ mi+ - 210° 210° 15 kt METAR EHHW 020055Z AUTO 21015KT 9999 NCD 17/14 Q1019
2:25 am
V
63 °F 6¼ mi+ - 210° 210° 13 kt METAR EHHW 020025Z AUTO 21013KT 9999 NCD 17/14 Q1019
1:55 am
V
63 °F 6¼ mi+ - 220° 220° 15 kt METAR EHHW 012355Z AUTO 22015KT 190V260 9999 NCD 17/13 Q1019
1:25 am
V
63 °F 6¼ mi+ - 210° 210° 14 kt METAR EHHW 012325Z AUTO 21014KT 190V250 9999 NCD 17/13 Q1019
12:55 am
V
63 °F 6¼ mi+ - 220° 220° 14 kt METAR EHHW 012255Z AUTO 22014KT 9999 NSC 17/13 Q1019
12:25 am
V
63 °F 6¼ mi+ - 220° 220° 15 kt METAR EHHW 012225Z AUTO 22015KT 190V260 9999 NSC 17/13 Q1019

1. Juli 2022

Uhrzeit Code Wetter Temp. Sichtweite Wolkendecke Wind METAR/SPECI
11:55 pm
V
63 °F 6¼ mi+ - 220° 220° 15 kt METAR EHHW 012155Z AUTO 22015KT 190V250 9999 NCD 17/13 Q1019
11:25 pm
V
63 °F 6¼ mi+ - 220° 220° 16 kt METAR EHHW 012125Z AUTO 22016KT 9999 NCD 17/13 Q1019
10:55 pm
V
63 °F 6¼ mi+ - 230° 230° 13 kt METAR EHHW 012055Z AUTO 23013KT 200V260 9999 FEW018/// 17/13 Q1019
10:25 pm
V
61 °F 6¼ mi+ - 230° 230° 14 kt METAR EHHW 012025Z AUTO 23014KT 200V280 9999 FEW018/// 16/13 Q1018
9:55 pm
V
61 °F 6¼ mi+ - 230° 230° 14 kt METAR EHHW 011955Z AUTO 23014KT 190V270 9999 NCD 16/13 Q1018
9:25 pm
V
61 °F 6¼ mi+ - 230° 230° 13 kt METAR EHHW 011925Z AUTO 23013KT 200V260 9999 NCD 16/13 Q1018
8:55 pm
V
61 °F 6¼ mi+ - 230° 230° 12 kt METAR EHHW 011855Z AUTO 23012KT 180V280 9999 FEW018/// 16/12 Q1017
8:25 pm
V
61 °F 6¼ mi+ - 230° 230° 13 kt METAR EHHW 011825Z AUTO 23013KT 180V290 9999 FEW018/// 16/12 Q1017
7:55 pm
V
61 °F 6¼ mi+ - 240° 240° 11 kt METAR EHHW 011755Z AUTO 24011KT 180V280 9999 FEW019/// 16/11 Q1017
7:25 pm
V
61 °F 6¼ mi+ - 240° 240° 14 kt METAR EHHW 011725Z AUTO 24014KT 180V290 9999 FEW018/// 16/11 Q1017
6:55 pm
V
61 °F 6¼ mi+ - 230° 230° 13 kt METAR EHHW 011655Z AUTO 23013KT 190V270 9999 FEW018/// 16/11 Q1017
6:25 pm
V
63 °F 6¼ mi+ - 230° 230° 14 kt METAR EHHW 011625Z AUTO 23014KT 9999 FEW020/// 17/11 Q1017
5:55 pm
V
63 °F 6¼ mi+ - 230° 230° 12 kt METAR EHHW 011555Z AUTO 23012KT 190V270 9999 FEW020/// 17/11 Q1017
5:25 pm
V
61 °F 6¼ mi+ - 240° 240° 11 kt METAR EHHW 011525Z AUTO 24011KT 190V280 9999 NCD 16/11 Q1016
4:55 pm
V
61 °F 6¼ mi+ - 230° 230° 12 kt METAR EHHW 011455Z AUTO 23012KT 190V300 9999 FEW019/// 16/11 Q1016
4:25 pm
V
61 °F 6¼ mi+ - 230° 230° 14 kt METAR EHHW 011425Z AUTO 23014KT 170V270 9999 FEW019/// SCT038/// 16/11 Q1016
3:55 pm
V
61 °F 6¼ mi+ - 230° 230° 10 kt METAR EHHW 011355Z AUTO 23010KT 180V290 9999 FEW021/// 16/11 Q1016
3:25 pm
V
61 °F 6¼ mi+ - 230° 230° 12 kt METAR EHHW 011325Z AUTO 23012KT 180V280 9999 FEW018/// 16/10 Q1016
2:55 pm
V
61 °F 6¼ mi+ - 220° 220° 13 kt METAR EHHW 011255Z AUTO 22013KT 190V260 9999 FEW018/// 16/11 Q1016
2:25 pm
V
61 °F 6¼ mi+ - 240° 240° 11 kt METAR EHHW 011225Z AUTO 24011KT 200V320 9999 NSC 16/11 Q1015
1:55 pm
V
61 °F 6¼ mi+ - 240° 240° 12 kt METAR EHHW 011155Z AUTO 24012KT 190V280 9999 FEW017/// 16/11 Q1015
1:25 pm
V
61 °F 6¼ mi+ - 230° 230° 12 kt METAR EHHW 011125Z AUTO 23012KT 190V290 9999 FEW015/// 16/11 Q1015
12:55 pm
V
61 °F 6¼ mi+ - 230° 230° 13 kt METAR EHHW 011055Z AUTO 23013KT 180V290 9999 FEW014/// 16/12 Q1015
12:25 pm
V
61 °F 6¼ mi+ - 240° 240° 11 kt METAR EHHW 011025Z AUTO 24011KT 190V290 9999 FEW013/// 16/12 Q1015
11:55 am
V
63 °F 6¼ mi+ - 230° 230° 12 kt METAR EHHW 010955Z AUTO 23012KT 180V280 9999 FEW014/// 17/13 Q1014
11:25 am
V
63 °F 6¼ mi+ - 220° 220° 15 kt METAR EHHW 010925Z AUTO 22015KT 190V250 9999 NSC 17/13 Q1014
10:55 am
V
63 °F 6¼ mi+ - 220° 220° 15 kt METAR EHHW 010855Z AUTO 22015KT 190V260 9999 FEW012/// 17/13 Q1014
10:25 am
V
61 °F 6¼ mi+ - 220° 220° 13 kt METAR EHHW 010825Z AUTO 22013KT 180V290 9999 FEW012/// 16/13 Q1014
9:55 am
V
61 °F 6¼ mi+ - 220° 220° 13 kt METAR EHHW 010755Z AUTO 22013KT 180V260 9999 FEW012/// 16/13 Q1014
9:25 am
V
61 °F 6¼ mi+ - 220° 220° 11 kt METAR EHHW 010725Z AUTO 22011KT 180V280 9999 FEW013/// 16/13 Q1013
8:55 am
V
61 °F 6¼ mi+ - 220° 220° 12 kt METAR EHHW 010655Z AUTO 22012KT 180V300 9999 FEW014/// 16/13 Q1013
8:25 am
V
61 °F 6¼ mi+ - 220° 220° 14 kt METAR EHHW 010625Z AUTO 22014KT 190V270 9999 FEW014/// 16/12 Q1013
7:55 am
V
61 °F 6¼ mi+ - 230° 230° 12 kt METAR EHHW 010555Z AUTO 23012KT 160V280 9999 FEW014/// 16/12 Q1013
7:25 am
V
61 °F 6¼ mi+ - 230° 230° 12 kt METAR EHHW 010525Z AUTO 23012KT 180V280 9999 FEW014/// 16/12 Q1013
6:55 am
M
61 °F 6¼ mi+ 2.400 ft 250° 250° 15 kt METAR EHHW 010455Z AUTO 25015KT 210V280 9999 FEW011/// SCT015/// BKN024/// 16/12 Q1012
6:25 am
M
61 °F 6¼ mi+ 1.900 ft 250° 250° 15 kt METAR EHHW 010425Z AUTO 25015KT 200V270 9999 FEW010/// SCT015/// BKN019/// 16/13 Q1012
5:55 am
M
61 °F 6¼ mi+ 1.500 ft 250° 250° 17 kt METAR EHHW 010355Z AUTO 25017KT 210V300 9999 FEW009/// SCT012/// BKN015/// 16/12 Q1012
5:25 am
M
61 °F 6¼ mi+ 1.400 ft 250° 250° 19 kt METAR EHHW 010325Z AUTO 25019KT 200V310 9999 FEW007/// SCT008/// BKN014/// 16/13 Q1012
4:55 am
I
59 °F 6¼ mi+ 800 ft 260° 260° 14 kt METAR EHHW 010255Z AUTO 26014KT 9999 FEW006/// BKN008/// BKN009/// 15/13 Q1011
4:25 am
I
59 °F 6¼ mi+ 800 ft 270° 270° 12 kt METAR EHHW 010225Z AUTO 27012KT 9999 FEW006/// BKN008/// BKN009/// 15/14 Q1011
3:55 am
M
59 °F 6¼ mi+ 1.100 ft 260° 260° 15 kt METAR EHHW 010155Z AUTO 26015KT 230V290 9999 FEW007/// SCT008/// BKN011/// 15/13 Q1011
3:25 am
M
59 °F 6¼ mi+ 2.600 ft 280° 280° 16 kt METAR EHHW 010125Z AUTO 28016KT 9999 -DZ FEW007/// SCT016/// BKN026/// 15/13 Q1011 REDZ
2:55 am
I
59 °F 5 mi 700 ft 270° 270° 18 kt METAR EHHW 010055Z AUTO 27018KT 8000 DZRA SCT006/// BKN007/// BKN011/// 15/13 Q1012 REDZ
2:25 am
I
59 °F 6¼ mi+ 600 ft 290° 290° 19 kt METAR EHHW 010025Z AUTO 29019KT 9999 SCT004/// BKN006/// OVC007/// 15/14 Q1011
1:55 am
L
59 °F 6¼ mi+ 400 ft 300° 300° 20 kt METAR EHHW 302355Z AUTO 30020KT 9999 BKN004/// OVC005/// 15/14 Q1010
1:25 am
I
61 °F 3¾ mi 500 ft 310° 310° 17 kt METAR EHHW 302325Z AUTO 31017KT 270V340 6000 -RA SCT003/// BKN005/// BKN006/// 16/15 Q1010
12:55 am
I
61 °F 3⅛ mi 800 ft 320° 320° 25 kt METAR EHHW 302255Z AUTO 32025KT 5000 -RA FEW003/// SCT006/// BKN008/// 16/15 Q1009
12:25 am
I
61 °F 2⅞ mi 1.100 ft 310° 310° 23 kt METAR EHHW 302225Z AUTO 31023KT 4600 -RA FEW007/// SCT009/// BKN011/// 16/14 Q1010 RERA REDZ

30. Juni 2022

Uhrzeit Code Wetter Temp. Sichtweite Wolkendecke Wind METAR/SPECI
11:55 pm
I
61 °F 5⅝ mi 800 ft 300° 300° 23 kt METAR EHHW 302155Z AUTO 30023KT 9000 -RA SCT006/// BKN008/// BKN009/// 16/14 Q1011
11:25 pm
I
63 °F 4⅜ mi 600 ft 300° 300° 21 kt METAR EHHW 302125Z AUTO 30021KT 7000 -RA BKN006/// OVC007/// 17/15 Q1011
10:55 pm
I
63 °F 6¼ mi+ 600 ft 310° 310° 17 kt METAR EHHW 302055Z AUTO 31017KT 280V350 9999 -RA SCT005/// BKN006/// OVC007/// 17/15 Q1011 RERA REDZ
10:25 pm
I
64 °F 6¼ mi+ 500 ft 310° 310° 12 kt METAR EHHW 302025Z AUTO 31012KT 9999 FEW003/// OVC005/// 18/16 Q1010
9:55 pm
L
64 °F 5 mi 300 ft 320° 320° 11 kt METAR EHHW 301955Z AUTO 32011KT 270V340 8000 FEW002/// BKN003/// BKN005/// 18/17 Q1010
9:25 pm
V
64 °F 6¼ mi+ - 300° 300° 12 kt METAR EHHW 301925Z AUTO 30012KT 9999 FEW003/// 18/17 Q1010
8:55 pm
V
66 °F 6¼ mi+ - 310° 310° 9 kt METAR EHHW 301855Z AUTO 31009KT 9999 NSC 19/17 Q1010
8:25 pm
V
66 °F 6¼ mi+ - 320° 320° 6 kt METAR EHHW 301825Z AUTO 32006KT 9999 NSC 19/17 Q1010
7:55 pm
V
66 °F 5 mi - 350° 350° 6 kt METAR EHHW 301755Z AUTO 35006KT 8000 NSC 19/17 Q1010
7:25 pm
V
66 °F 6¼ mi+ - 320° 320° 3 kt METAR EHHW 301725Z AUTO 32003KT 9999 NSC 19/17 Q1010
6:55 pm
V
66 °F 6¼ mi+ - 320° 320° 4 kt METAR EHHW 301655Z AUTO 32004KT 310V030 9999 NSC 19/17 Q1011
6:25 pm
V
68 °F 6¼ mi+ - 030° 030° 2 kt METAR EHHW 301625Z AUTO 03002KT 9999 NSC 20/17 Q1011
5:55 pm
V
68 °F 6¼ mi+ - 030° 030° 2 kt METAR EHHW 301555Z AUTO 03002KT 9999 NSC 20/16 Q1011
5:25 pm
V
68 °F 6¼ mi+ - Var Var 1 kt METAR EHHW 301525Z AUTO VRB01KT 9999 NSC 20/16 Q1011
4:55 pm
V
66 °F 6¼ mi+ - Var Var 1 kt METAR EHHW 301455Z AUTO VRB01KT 9999 NSC 19/16 Q1011
4:25 pm
V
66 °F 6¼ mi+ - 170° 170° 3 kt METAR EHHW 301425Z AUTO 17003KT 110V250 9999 NSC 19/16 Q1012
3:55 pm
V
66 °F 6¼ mi+ - 140° 140° 3 kt METAR EHHW 301355Z AUTO 14003KT 090V230 9999 NSC 19/16 Q1012
3:25 pm
V
68 °F 6¼ mi+ - 160° 160° 3 kt METAR EHHW 301325Z AUTO 16003KT 110V190 9999 NSC 20/15 Q1012
2:55 pm
V
66 °F 6¼ mi+ - 140° 140° 3 kt METAR EHHW 301255Z AUTO 14003KT 080V210 9999 NSC 19/16 Q1012
2:25 pm
V
66 °F 6¼ mi+ - 130° 130° 4 kt METAR EHHW 301225Z AUTO 13004KT 090V210 9999 NSC 19/15 Q1012
1:55 pm
V
66 °F 6¼ mi+ - 110° 110° 6 kt METAR EHHW 301155Z AUTO 11006KT 070V150 9999 NSC 19/15 Q1012
1:25 pm
V
66 °F 6¼ mi+ - 100° 100° 9 kt METAR EHHW 301125Z AUTO 10009KT 9999 NCD 19/15 Q1012
12:55 pm
V
66 °F 6¼ mi+ - 110° 110° 7 kt METAR EHHW 301055Z AUTO 11007KT 070V150 9999 NCD 19/14 Q1012
12:25 pm
V
66 °F 6¼ mi+ - 110° 110° 9 kt METAR EHHW 301025Z AUTO 11009KT 070V140 9999 FEW040/// 19/14 Q1012
11:55 am
V
68 °F 6¼ mi+ - 130° 130° 9 kt METAR EHHW 300955Z AUTO 13009KT 070V170 9999 FEW040/// 20/14 Q1012
11:25 am
V
66 °F 6¼ mi+ - 120° 120° 10 kt METAR EHHW 300925Z AUTO 12010KT 070V200 9999 NSC 19/14 Q1012
10:55 am
V
66 °F 6¼ mi+ - 130° 130° 11 kt METAR EHHW 300855Z AUTO 13011KT 060V190 9999 NCD 19/14 Q1011
10:25 am
V
66 °F 6¼ mi+ - 130° 130° 11 kt METAR EHHW 300825Z AUTO 13011KT 080V180 9999 NSC 19/14 Q1011
9:55 am
V
66 °F 6¼ mi+ - 130° 130° 12 kt METAR EHHW 300755Z AUTO 13012KT 070V180 9999 NSC 19/14 Q1011
9:25 am
V
66 °F 6¼ mi+ - 120° 120° 14 kt METAR EHHW 300725Z AUTO 12014KT 070V170 9999 NSC 19/14 Q1011
8:55 am
V
66 °F 6¼ mi+ - 120° 120° 11 kt METAR EHHW 300655Z AUTO 12011KT 080V200 9999 NCD 19/13 Q1011
8:25 am
V
66 °F 6¼ mi+ - 120° 120° 15 kt METAR EHHW 300625Z AUTO 12015KT 070V180 9999 NSC 19/14 Q1011
7:55 am
V
66 °F 6¼ mi+ - 130° 130° 13 kt METAR EHHW 300555Z AUTO 13013KT 060V180 9999 NSC 19/13 Q1011
7:25 am
V
66 °F 6¼ mi+ - 130° 130° 13 kt METAR EHHW 300525Z AUTO 13013KT 050V190 9999 NSC 19/14 Q1011
6:55 am
V
68 °F 6¼ mi+ - 140° 140° 16 kt METAR EHHW 300455Z AUTO 14016KT 080V180 9999 NSC 20/13 Q1011
Ältere Daten

Laden Sie unsere App herunter

Einfacher Zugriff auf das gesamte Flugwetter auf Ihrem Mobiltelefon und Tablet.
Mit vielen Funktionen, die auf der Website nicht verfügbar sind, wie Offline-Unterstützung und eine persönliche Flughafenliste.

Wir und Dritte verfolgen dein Internetverhalten auf unserer Website mit Cookies. Wenn du fortfährst, gehen wir davon aus, dass du mit unserer Cookie-Richtlinie einverstanden bist. Mehr erfahren